sensor_id;sensor_type;location;lat;lon;timestamp;temperature;humidity
2226;DHT22;1119;48.288;8.726;2024-01-30T00:00:57;5.80;93.00
2226;DHT22;1119;48.288;8.726;2024-01-30T00:03:24;5.80;93.00
2226;DHT22;1119;48.288;8.726;2024-01-30T00:05:51;5.80;92.90
2226;DHT22;1119;48.288;8.726;2024-01-30T00:08:19;5.80;92.80
2226;DHT22;1119;48.288;8.726;2024-01-30T00:10:46;5.90;92.60
2226;DHT22;1119;48.288;8.726;2024-01-30T00:13:13;5.90;92.50
2226;DHT22;1119;48.288;8.726;2024-01-30T00:15:43;6.20;92.80
2226;DHT22;1119;48.288;8.726;2024-01-30T00:18:12;5.90;92.60
2226;DHT22;1119;48.288;8.726;2024-01-30T00:20:39;5.80;92.20
2226;DHT22;1119;48.288;8.726;2024-01-30T00:23:06;5.90;91.80
2226;DHT22;1119;48.288;8.726;2024-01-30T00:25:33;5.90;91.50
2226;DHT22;1119;48.288;8.726;2024-01-30T00:28:00;5.90;91.20
2226;DHT22;1119;48.288;8.726;2024-01-30T00:30:28;6.00;91.20
2226;DHT22;1119;48.288;8.726;2024-01-30T00:32:55;6.00;90.80
2226;DHT22;1119;48.288;8.726;2024-01-30T00:35:23;6.00;90.50
2226;DHT22;1119;48.288;8.726;2024-01-30T00:37:51;6.10;90.20
2226;DHT22;1119;48.288;8.726;2024-01-30T00:40:18;6.10;89.80
2226;DHT22;1119;48.288;8.726;2024-01-30T00:42:46;6.10;89.10
2226;DHT22;1119;48.288;8.726;2024-01-30T00:45:14;6.10;88.40
2226;DHT22;1119;48.288;8.726;2024-01-30T00:47:41;6.20;87.80
2226;DHT22;1119;48.288;8.726;2024-01-30T00:50:09;6.30;86.70
2226;DHT22;1119;48.288;8.726;2024-01-30T00:52:38;6.40;85.90
2226;DHT22;1119;48.288;8.726;2024-01-30T00:55:07;6.50;85.10
2226;DHT22;1119;48.288;8.726;2024-01-30T00:57:34;6.50;84.30
2226;DHT22;1119;48.288;8.726;2024-01-30T01:00:01;6.60;83.90
2226;DHT22;1119;48.288;8.726;2024-01-30T01:02:31;6.60;82.80
2226;DHT22;1119;48.288;8.726;2024-01-30T01:04:58;6.70;82.30
2226;DHT22;1119;48.288;8.726;2024-01-30T01:07:25;6.80;81.50
2226;DHT22;1119;48.288;8.726;2024-01-30T01:09:54;6.70;81.20
2226;DHT22;1119;48.288;8.726;2024-01-30T01:12:21;6.80;80.50
2226;DHT22;1119;48.288;8.726;2024-01-30T01:14:48;6.90;79.70
2226;DHT22;1119;48.288;8.726;2024-01-30T01:17:16;6.90;78.70
2226;DHT22;1119;48.288;8.726;2024-01-30T01:19:44;7.00;77.90
2226;DHT22;1119;48.288;8.726;2024-01-30T01:22:11;7.10;77.20
2226;DHT22;1119;48.288;8.726;2024-01-30T01:24:39;7.20;76.50
2226;DHT22;1119;48.288;8.726;2024-01-30T01:27:07;7.20;76.10
2226;DHT22;1119;48.288;8.726;2024-01-30T01:29:34;7.30;75.70
2226;DHT22;1119;48.288;8.726;2024-01-30T01:32:02;7.30;75.90
2226;DHT22;1119;48.288;8.726;2024-01-30T01:34:30;7.30;76.40
2226;DHT22;1119;48.288;8.726;2024-01-30T01:36:57;7.30;76.70
2226;DHT22;1119;48.288;8.726;2024-01-30T01:39:24;7.20;77.20
2226;DHT22;1119;48.288;8.726;2024-01-30T01:41:51;7.20;77.40
2226;DHT22;1119;48.288;8.726;2024-01-30T01:44:20;7.10;77.40
2226;DHT22;1119;48.288;8.726;2024-01-30T01:46:47;7.10;77.80
2226;DHT22;1119;48.288;8.726;2024-01-30T01:49:15;7.00;78.70
2226;DHT22;1119;48.288;8.726;2024-01-30T01:51:45;6.90;79.00
2226;DHT22;1119;48.288;8.726;2024-01-30T01:54:14;6.80;79.10
2226;DHT22;1119;48.288;8.726;2024-01-30T01:56:42;6.80;79.40
2226;DHT22;1119;48.288;8.726;2024-01-30T01:59:10;6.80;79.20
2226;DHT22;1119;48.288;8.726;2024-01-30T02:01:39;6.80;79.30
2226;DHT22;1119;48.288;8.726;2024-01-30T02:04:07;6.80;79.20
2226;DHT22;1119;48.288;8.726;2024-01-30T02:06:35;6.70;79.50
2226;DHT22;1119;48.288;8.726;2024-01-30T02:09:02;6.70;79.30
2226;DHT22;1119;48.288;8.726;2024-01-30T02:11:30;6.70;79.20
2226;DHT22;1119;48.288;8.726;2024-01-30T02:14:02;6.70;79.00
2226;DHT22;1119;48.288;8.726;2024-01-30T02:16:30;6.70;78.70
2226;DHT22;1119;48.288;8.726;2024-01-30T02:19:06;6.70;78.40
2226;DHT22;1119;48.288;8.726;2024-01-30T02:21:36;6.80;78.40
2226;DHT22;1119;48.288;8.726;2024-01-30T02:24:04;6.80;78.20
2226;DHT22;1119;48.288;8.726;2024-01-30T02:26:31;6.70;77.50
2226;DHT22;1119;48.288;8.726;2024-01-30T02:28:59;6.80;77.30
2226;DHT22;1119;48.288;8.726;2024-01-30T02:31:26;6.80;77.20
2226;DHT22;1119;48.288;8.726;2024-01-30T02:33:53;6.80;77.20
2226;DHT22;1119;48.288;8.726;2024-01-30T02:36:21;6.80;76.40
2226;DHT22;1119;48.288;8.726;2024-01-30T02:38:49;6.80;76.10
2226;DHT22;1119;48.288;8.726;2024-01-30T02:41:17;6.90;74.40
2226;DHT22;1119;48.288;8.726;2024-01-30T02:43:44;6.90;73.70
2226;DHT22;1119;48.288;8.726;2024-01-30T02:46:11;7.00;73.00
2226;DHT22;1119;48.288;8.726;2024-01-30T02:48:39;7.10;72.50
2226;DHT22;1119;48.288;8.726;2024-01-30T02:51:06;7.10;73.20
2226;DHT22;1119;48.288;8.726;2024-01-30T02:53:33;7.10;72.70
2226;DHT22;1119;48.288;8.726;2024-01-30T02:56:02;7.10;72.80
2226;DHT22;1119;48.288;8.726;2024-01-30T02:58:29;7.10;72.80
2226;DHT22;1119;48.288;8.726;2024-01-30T03:00:57;7.10;73.10
2226;DHT22;1119;48.288;8.726;2024-01-30T03:03:24;7.10;73.30
2226;DHT22;1119;48.288;8.726;2024-01-30T03:05:51;7.00;73.30
2226;DHT22;1119;48.288;8.726;2024-01-30T03:08:18;7.00;73.00
2226;DHT22;1119;48.288;8.726;2024-01-30T03:10:46;7.00;73.00
2226;DHT22;1119;48.288;8.726;2024-01-30T03:13:14;6.90;72.60
2226;DHT22;1119;48.288;8.726;2024-01-30T03:15:42;7.00;72.10
2226;DHT22;1119;48.288;8.726;2024-01-30T03:18:09;7.00;71.80
2226;DHT22;1119;48.288;8.726;2024-01-30T03:20:36;7.00;71.80
2226;DHT22;1119;48.288;8.726;2024-01-30T03:23:03;7.00;71.50
2226;DHT22;1119;48.288;8.726;2024-01-30T03:25:31;7.10;71.50
2226;DHT22;1119;48.288;8.726;2024-01-30T03:27:58;7.10;70.90
2226;DHT22;1119;48.288;8.726;2024-01-30T03:30:27;7.10;70.90
2226;DHT22;1119;48.288;8.726;2024-01-30T03:32:54;7.10;71.10
2226;DHT22;1119;48.288;8.726;2024-01-30T03:35:21;7.10;71.30
2226;DHT22;1119;48.288;8.726;2024-01-30T03:37:48;7.00;71.60
2226;DHT22;1119;48.288;8.726;2024-01-30T03:40:18;7.00;71.80
2226;DHT22;1119;48.288;8.726;2024-01-30T03:42:45;7.00;71.80
2226;DHT22;1119;48.288;8.726;2024-01-30T03:45:12;7.00;71.90
2226;DHT22;1119;48.288;8.726;2024-01-30T03:47:43;7.10;71.80
2226;DHT22;1119;48.288;8.726;2024-01-30T03:50:10;7.10;71.80
2226;DHT22;1119;48.288;8.726;2024-01-30T03:52:38;7.10;71.90
2226;DHT22;1119;48.288;8.726;2024-01-30T03:55:06;7.10;71.90
2226;DHT22;1119;48.288;8.726;2024-01-30T03:57:33;7.10;71.80
2226;DHT22;1119;48.288;8.726;2024-01-30T04:00:01;7.00;71.90
2226;DHT22;1119;48.288;8.726;2024-01-30T04:02:38;7.00;71.80
2226;DHT22;1119;48.288;8.726;2024-01-30T04:05:07;7.00;72.10
2226;DHT22;1119;48.288;8.726;2024-01-30T04:07:35;7.00;72.40
2226;DHT22;1119;48.288;8.726;2024-01-30T04:10:02;7.00;72.60
2226;DHT22;1119;48.288;8.726;2024-01-30T04:12:31;6.90;72.90
2226;DHT22;1119;48.288;8.726;2024-01-30T04:14:58;6.90;73.10
2226;DHT22;1119;48.288;8.726;2024-01-30T04:17:26;6.90;73.40
2226;DHT22;1119;48.288;8.726;2024-01-30T04:19:54;6.90;73.50
2226;DHT22;1119;48.288;8.726;2024-01-30T04:22:23;6.80;73.80
2226;DHT22;1119;48.288;8.726;2024-01-30T04:24:50;6.80;74.20
2226;DHT22;1119;48.288;8.726;2024-01-30T04:27:17;6.80;74.60
2226;DHT22;1119;48.288;8.726;2024-01-30T04:29:45;6.70;74.90
2226;DHT22;1119;48.288;8.726;2024-01-30T04:32:12;6.80;75.30
2226;DHT22;1119;48.288;8.726;2024-01-30T04:34:39;6.80;75.50
2226;DHT22;1119;48.288;8.726;2024-01-30T04:37:06;6.80;75.60
2226;DHT22;1119;48.288;8.726;2024-01-30T04:39:35;6.70;75.90
2226;DHT22;1119;48.288;8.726;2024-01-30T04:42:03;6.70;76.40
2226;DHT22;1119;48.288;8.726;2024-01-30T04:44:31;6.70;76.80
2226;DHT22;1119;48.288;8.726;2024-01-30T04:46:58;6.50;77.10
2226;DHT22;1119;48.288;8.726;2024-01-30T04:49:27;6.40;77.70
2226;DHT22;1119;48.288;8.726;2024-01-30T04:51:54;6.30;78.50
2226;DHT22;1119;48.288;8.726;2024-01-30T04:54:22;6.20;79.10
2226;DHT22;1119;48.288;8.726;2024-01-30T04:56:51;6.00;79.30
2226;DHT22;1119;48.288;8.726;2024-01-30T04:59:18;6.00;79.90
2226;DHT22;1119;48.288;8.726;2024-01-30T05:01:45;6.00;80.00
2226;DHT22;1119;48.288;8.726;2024-01-30T05:04:12;6.00;80.50
2226;DHT22;1119;48.288;8.726;2024-01-30T05:06:40;5.90;80.90
2226;DHT22;1119;48.288;8.726;2024-01-30T05:09:07;5.90;81.30
2226;DHT22;1119;48.288;8.726;2024-01-30T05:11:37;5.90;81.80
2226;DHT22;1119;48.288;8.726;2024-01-30T05:14:06;5.90;82.30
2226;DHT22;1119;48.288;8.726;2024-01-30T05:16:34;5.80;82.70
2226;DHT22;1119;48.288;8.726;2024-01-30T05:19:01;5.80;83.10
2226;DHT22;1119;48.288;8.726;2024-01-30T05:21:29;5.80;83.50
2226;DHT22;1119;48.288;8.726;2024-01-30T05:23:56;5.70;83.60
2226;DHT22;1119;48.288;8.726;2024-01-30T05:26:23;5.70;83.70
2226;DHT22;1119;48.288;8.726;2024-01-30T05:28:50;5.70;84.00
2226;DHT22;1119;48.288;8.726;2024-01-30T05:31:19;5.70;84.20
2226;DHT22;1119;48.288;8.726;2024-01-30T05:33:46;5.70;84.30
2226;DHT22;1119;48.288;8.726;2024-01-30T05:36:14;5.70;84.50
2226;DHT22;1119;48.288;8.726;2024-01-30T05:38:41;5.60;84.70
2226;DHT22;1119;48.288;8.726;2024-01-30T05:41:09;5.60;84.70
2226;DHT22;1119;48.288;8.726;2024-01-30T05:43:36;5.60;84.60
2226;DHT22;1119;48.288;8.726;2024-01-30T05:46:04;5.60;84.60
2226;DHT22;1119;48.288;8.726;2024-01-30T05:48:33;5.70;84.20
2226;DHT22;1119;48.288;8.726;2024-01-30T05:51:02;5.70;83.70
2226;DHT22;1119;48.288;8.726;2024-01-30T05:53:29;5.70;83.60
2226;DHT22;1119;48.288;8.726;2024-01-30T05:55:57;5.70;83.30
2226;DHT22;1119;48.288;8.726;2024-01-30T05:58:24;5.70;83.20
2226;DHT22;1119;48.288;8.726;2024-01-30T06:00:51;5.70;82.10
2226;DHT22;1119;48.288;8.726;2024-01-30T06:03:19;5.80;81.30
2226;DHT22;1119;48.288;8.726;2024-01-30T06:05:47;5.80;80.90
2226;DHT22;1119;48.288;8.726;2024-01-30T06:08:15;5.90;80.60
2226;DHT22;1119;48.288;8.726;2024-01-30T06:10:42;6.20;80.70
2226;DHT22;1119;48.288;8.726;2024-01-30T06:13:09;6.00;80.30
2226;DHT22;1119;48.288;8.726;2024-01-30T06:15:37;6.00;80.20
2226;DHT22;1119;48.288;8.726;2024-01-30T06:18:05;6.00;80.20
2226;DHT22;1119;48.288;8.726;2024-01-30T06:20:32;6.10;80.60
2226;DHT22;1119;48.288;8.726;2024-01-30T06:23:01;6.00;81.10
2226;DHT22;1119;48.288;8.726;2024-01-30T06:25:28;6.00;81.80
2226;DHT22;1119;48.288;8.726;2024-01-30T06:27:55;5.90;82.50
2226;DHT22;1119;48.288;8.726;2024-01-30T06:30:23;5.80;83.00
2226;DHT22;1119;48.288;8.726;2024-01-30T06:32:50;5.70;83.20
2226;DHT22;1119;48.288;8.726;2024-01-30T06:35:17;5.70;82.80
2226;DHT22;1119;48.288;8.726;2024-01-30T06:37:45;5.70;82.60
2226;DHT22;1119;48.288;8.726;2024-01-30T06:40:14;5.70;82.20
2226;DHT22;1119;48.288;8.726;2024-01-30T06:42:41;5.80;82.20
2226;DHT22;1119;48.288;8.726;2024-01-30T06:45:09;5.70;81.80
2226;DHT22;1119;48.288;8.726;2024-01-30T06:47:36;5.70;81.60
2226;DHT22;1119;48.288;8.726;2024-01-30T06:50:04;5.80;80.90
2226;DHT22;1119;48.288;8.726;2024-01-30T06:52:33;5.80;79.60
2226;DHT22;1119;48.288;8.726;2024-01-30T06:55:00;5.90;79.10
2226;DHT22;1119;48.288;8.726;2024-01-30T06:57:30;6.00;78.20
2226;DHT22;1119;48.288;8.726;2024-01-30T06:59:57;6.10;77.70
2226;DHT22;1119;48.288;8.726;2024-01-30T07:02:24;6.10;76.80
2226;DHT22;1119;48.288;8.726;2024-01-30T07:04:52;6.20;76.90
2226;DHT22;1119;48.288;8.726;2024-01-30T07:07:19;6.20;76.60
2226;DHT22;1119;48.288;8.726;2024-01-30T07:09:46;6.20;76.40
2226;DHT22;1119;48.288;8.726;2024-01-30T07:12:15;6.30;76.20
2226;DHT22;1119;48.288;8.726;2024-01-30T07:14:44;6.50;75.90
2226;DHT22;1119;48.288;8.726;2024-01-30T07:17:11;6.90;75.20
2226;DHT22;1119;48.288;8.726;2024-01-30T07:19:38;7.20;74.10
2226;DHT22;1119;48.288;8.726;2024-01-30T07:22:06;7.20;73.60
2226;DHT22;1119;48.288;8.726;2024-01-30T07:24:33;7.10;73.20
2226;DHT22;1119;48.288;8.726;2024-01-30T07:27:00;7.10;73.00
2226;DHT22;1119;48.288;8.726;2024-01-30T07:29:28;7.00;72.30
2226;DHT22;1119;48.288;8.726;2024-01-30T07:31:57;6.90;71.90
2226;DHT22;1119;48.288;8.726;2024-01-30T07:34:24;6.90;71.90
2226;DHT22;1119;48.288;8.726;2024-01-30T07:36:53;7.00;71.70
2226;DHT22;1119;48.288;8.726;2024-01-30T07:39:20;7.00;71.50
2226;DHT22;1119;48.288;8.726;2024-01-30T07:41:48;6.90;71.50
2226;DHT22;1119;48.288;8.726;2024-01-30T07:44:15;7.00;71.30
2226;DHT22;1119;48.288;8.726;2024-01-30T07:46:42;7.00;71.30
2226;DHT22;1119;48.288;8.726;2024-01-30T07:49:11;7.00;70.60
2226;DHT22;1119;48.288;8.726;2024-01-30T07:51:40;7.00;69.60
2226;DHT22;1119;48.288;8.726;2024-01-30T07:54:07;7.10;68.90
2226;DHT22;1119;48.288;8.726;2024-01-30T07:56:34;7.30;68.80
2226;DHT22;1119;48.288;8.726;2024-01-30T07:59:02;7.20;68.30
2226;DHT22;1119;48.288;8.726;2024-01-30T08:01:29;7.30;68.30
2226;DHT22;1119;48.288;8.726;2024-01-30T08:03:57;7.30;67.90
2226;DHT22;1119;48.288;8.726;2024-01-30T08:06:25;7.40;67.70
2226;DHT22;1119;48.288;8.726;2024-01-30T08:08:53;7.40;67.20
2226;DHT22;1119;48.288;8.726;2024-01-30T08:11:20;7.50;67.00
2226;DHT22;1119;48.288;8.726;2024-01-30T08:13:51;7.50;66.70
2226;DHT22;1119;48.288;8.726;2024-01-30T08:16:18;7.60;66.80
2226;DHT22;1119;48.288;8.726;2024-01-30T08:18:45;7.60;66.90
2226;DHT22;1119;48.288;8.726;2024-01-30T08:21:13;7.60;67.00
2226;DHT22;1119;48.288;8.726;2024-01-30T08:23:42;7.70;66.90
2226;DHT22;1119;48.288;8.726;2024-01-30T08:26:09;7.70;66.50
2226;DHT22;1119;48.288;8.726;2024-01-30T08:28:37;7.80;66.20
2226;DHT22;1119;48.288;8.726;2024-01-30T08:31:04;7.80;66.00
2226;DHT22;1119;48.288;8.726;2024-01-30T08:33:31;7.90;65.50
2226;DHT22;1119;48.288;8.726;2024-01-30T08:35:59;8.00;65.80
2226;DHT22;1119;48.288;8.726;2024-01-30T08:38:26;8.10;65.50
2226;DHT22;1119;48.288;8.726;2024-01-30T08:40:56;8.20;65.50
2226;DHT22;1119;48.288;8.726;2024-01-30T08:43:23;8.30;65.90
2226;DHT22;1119;48.288;8.726;2024-01-30T08:45:50;8.40;65.90
2226;DHT22;1119;48.288;8.726;2024-01-30T08:48:18;8.50;65.40
2226;DHT22;1119;48.288;8.726;2024-01-30T08:50:45;8.70;65.40
2226;DHT22;1119;48.288;8.726;2024-01-30T08:53:12;8.70;65.30
2226;DHT22;1119;48.288;8.726;2024-01-30T08:55:39;8.80;65.50
2226;DHT22;1119;48.288;8.726;2024-01-30T08:58:08;8.90;65.80
2226;DHT22;1119;48.288;8.726;2024-01-30T09:00:35;8.90;65.90
2226;DHT22;1119;48.288;8.726;2024-01-30T09:03:03;9.00;66.20
2226;DHT22;1119;48.288;8.726;2024-01-30T09:05:31;9.00;66.50
2226;DHT22;1119;48.288;8.726;2024-01-30T09:07:58;9.10;66.90
2226;DHT22;1119;48.288;8.726;2024-01-30T09:10:26;9.10;67.30
2226;DHT22;1119;48.288;8.726;2024-01-30T09:12:53;9.20;66.30
2226;DHT22;1119;48.288;8.726;2024-01-30T09:15:22;9.30;65.30
2226;DHT22;1119;48.288;8.726;2024-01-30T09:17:49;9.30;65.30
2226;DHT22;1119;48.288;8.726;2024-01-30T09:20:17;9.50;64.90
2226;DHT22;1119;48.288;8.726;2024-01-30T09:22:46;9.60;64.60
2226;DHT22;1119;48.288;8.726;2024-01-30T09:25:13;9.70;64.70
2226;DHT22;1119;48.288;8.726;2024-01-30T09:27:41;9.90;64.80
2226;DHT22;1119;48.288;8.726;2024-01-30T09:30:08;10.00;63.20
2226;DHT22;1119;48.288;8.726;2024-01-30T09:32:39;10.20;62.60
2226;DHT22;1119;48.288;8.726;2024-01-30T09:35:07;10.40;63.10
2226;DHT22;1119;48.288;8.726;2024-01-30T09:37:35;10.50;63.50
2226;DHT22;1119;48.288;8.726;2024-01-30T09:40:02;10.60;63.40
2226;DHT22;1119;48.288;8.726;2024-01-30T09:42:34;10.60;63.60
2226;DHT22;1119;48.288;8.726;2024-01-30T09:45:02;10.70;63.40
2226;DHT22;1119;48.288;8.726;2024-01-30T09:47:32;10.80;62.50
2226;DHT22;1119;48.288;8.726;2024-01-30T09:50:01;10.90;62.20
2226;DHT22;1119;48.288;8.726;2024-01-30T09:52:31;10.80;61.70
2226;DHT22;1119;48.288;8.726;2024-01-30T09:55:00;10.90;60.70
2226;DHT22;1119;48.288;8.726;2024-01-30T09:57:28;10.90;59.70
2226;DHT22;1119;48.288;8.726;2024-01-30T09:59:55;10.90;59.30
2226;DHT22;1119;48.288;8.726;2024-01-30T10:02:23;11.00;58.80
2226;DHT22;1119;48.288;8.726;2024-01-30T10:04:51;11.00;58.60
2226;DHT22;1119;48.288;8.726;2024-01-30T10:07:20;11.00;58.20
2226;DHT22;1119;48.288;8.726;2024-01-30T10:09:47;11.10;57.60
2226;DHT22;1119;48.288;8.726;2024-01-30T10:12:15;11.20;57.40
2226;DHT22;1119;48.288;8.726;2024-01-30T10:14:43;11.20;57.10
2226;DHT22;1119;48.288;8.726;2024-01-30T10:17:11;11.20;56.90
2226;DHT22;1119;48.288;8.726;2024-01-30T10:19:40;11.30;57.40
2226;DHT22;1119;48.288;8.726;2024-01-30T10:22:09;11.40;57.00
2226;DHT22;1119;48.288;8.726;2024-01-30T10:24:38;11.50;58.00
2226;DHT22;1119;48.288;8.726;2024-01-30T10:27:05;11.60;57.10
2226;DHT22;1119;48.288;8.726;2024-01-30T10:29:33;11.60;57.50
2226;DHT22;1119;48.288;8.726;2024-01-30T10:32:01;11.60;57.60
2226;DHT22;1119;48.288;8.726;2024-01-30T10:34:29;11.70;57.10
2226;DHT22;1119;48.288;8.726;2024-01-30T10:37:01;11.70;57.40
2226;DHT22;1119;48.288;8.726;2024-01-30T10:39:39;11.70;57.60
2226;DHT22;1119;48.288;8.726;2024-01-30T10:42:11;11.70;58.30
2226;DHT22;1119;48.288;8.726;2024-01-30T10:44:46;11.80;57.90
2226;DHT22;1119;48.288;8.726;2024-01-30T10:47:18;12.00;58.30
2226;DHT22;1119;48.288;8.726;2024-01-30T10:49:49;12.00;57.50
2226;DHT22;1119;48.288;8.726;2024-01-30T10:52:18;12.10;57.50
2226;DHT22;1119;48.288;8.726;2024-01-30T10:54:50;12.10;57.50
2226;DHT22;1119;48.288;8.726;2024-01-30T10:57:18;12.20;57.50
2226;DHT22;1119;48.288;8.726;2024-01-30T10:59:46;12.20;57.40
2226;DHT22;1119;48.288;8.726;2024-01-30T11:02:14;12.30;57.20
2226;DHT22;1119;48.288;8.726;2024-01-30T11:04:42;12.40;56.20
2226;DHT22;1119;48.288;8.726;2024-01-30T11:07:16;12.50;56.40
2226;DHT22;1119;48.288;8.726;2024-01-30T11:09:50;12.50;56.50
2226;DHT22;1119;48.288;8.726;2024-01-30T11:12:21;12.60;56.60
2226;DHT22;1119;48.288;8.726;2024-01-30T11:14:50;12.70;56.90
2226;DHT22;1119;48.288;8.726;2024-01-30T11:17:40;12.70;57.00
2226;DHT22;1119;48.288;8.726;2024-01-30T11:20:10;12.70;57.00
2226;DHT22;1119;48.288;8.726;2024-01-30T11:22:44;12.60;57.60
2226;DHT22;1119;48.288;8.726;2024-01-30T11:25:15;12.40;58.30
2226;DHT22;1119;48.288;8.726;2024-01-30T11:27:44;12.30;58.40
2226;DHT22;1119;48.288;8.726;2024-01-30T11:30:21;12.30;59.10
2226;DHT22;1119;48.288;8.726;2024-01-30T11:33:02;12.30;59.70
2226;DHT22;1119;48.288;8.726;2024-01-30T11:35:32;12.30;59.40
2226;DHT22;1119;48.288;8.726;2024-01-30T11:38:00;12.30;59.40
2226;DHT22;1119;48.288;8.726;2024-01-30T11:40:30;12.20;59.10
2226;DHT22;1119;48.288;8.726;2024-01-30T11:43:00;12.20;58.80
2226;DHT22;1119;48.288;8.726;2024-01-30T11:45:28;12.10;58.30
2226;DHT22;1119;48.288;8.726;2024-01-30T11:47:57;11.90;59.00
2226;DHT22;1119;48.288;8.726;2024-01-30T11:50:25;11.90;58.70
2226;DHT22;1119;48.288;8.726;2024-01-30T11:52:54;12.00;58.70
2226;DHT22;1119;48.288;8.726;2024-01-30T11:55:23;11.90;58.60
2226;DHT22;1119;48.288;8.726;2024-01-30T11:57:55;12.00;59.20
2226;DHT22;1119;48.288;8.726;2024-01-30T12:00:22;12.00;59.00
2226;DHT22;1119;48.288;8.726;2024-01-30T12:02:50;12.00;59.20
2226;DHT22;1119;48.288;8.726;2024-01-30T12:05:22;12.10;59.30
2226;DHT22;1119;48.288;8.726;2024-01-30T12:07:49;12.10;59.30
2226;DHT22;1119;48.288;8.726;2024-01-30T12:10:17;12.10;59.10
2226;DHT22;1119;48.288;8.726;2024-01-30T12:12:46;12.20;58.70
2226;DHT22;1119;48.288;8.726;2024-01-30T12:15:16;12.10;58.50
2226;DHT22;1119;48.288;8.726;2024-01-30T12:17:44;12.10;58.60
2226;DHT22;1119;48.288;8.726;2024-01-30T12:20:12;12.10;59.40
2226;DHT22;1119;48.288;8.726;2024-01-30T12:22:41;12.10;59.30
2226;DHT22;1119;48.288;8.726;2024-01-30T12:25:10;12.10;58.70
2226;DHT22;1119;48.288;8.726;2024-01-30T12:27:39;12.20;58.50
2226;DHT22;1119;48.288;8.726;2024-01-30T12:30:08;12.10;58.30
2226;DHT22;1119;48.288;8.726;2024-01-30T12:32:37;12.10;58.20
2226;DHT22;1119;48.288;8.726;2024-01-30T12:35:08;12.00;58.20
2226;DHT22;1119;48.288;8.726;2024-01-30T12:37:38;12.00;58.30
2226;DHT22;1119;48.288;8.726;2024-01-30T12:40:06;12.10;58.30
2226;DHT22;1119;48.288;8.726;2024-01-30T12:42:35;12.10;58.30
2226;DHT22;1119;48.288;8.726;2024-01-30T12:45:04;12.20;58.60
2226;DHT22;1119;48.288;8.726;2024-01-30T12:47:32;12.30;59.30
2226;DHT22;1119;48.288;8.726;2024-01-30T12:50:00;12.30;59.10
2226;DHT22;1119;48.288;8.726;2024-01-30T12:52:28;12.30;59.20
2226;DHT22;1119;48.288;8.726;2024-01-30T12:54:56;12.30;59.20
2226;DHT22;1119;48.288;8.726;2024-01-30T12:57:23;12.40;59.00
2226;DHT22;1119;48.288;8.726;2024-01-30T12:59:50;12.40;59.20
2226;DHT22;1119;48.288;8.726;2024-01-30T13:02:18;12.30;59.90
2226;DHT22;1119;48.288;8.726;2024-01-30T13:04:45;12.30;60.00
2226;DHT22;1119;48.288;8.726;2024-01-30T13:07:14;12.30;59.30
2226;DHT22;1119;48.288;8.726;2024-01-30T13:09:41;12.30;59.30
2226;DHT22;1119;48.288;8.726;2024-01-30T13:12:08;12.30;59.70
2226;DHT22;1119;48.288;8.726;2024-01-30T13:14:36;12.40;60.10
2226;DHT22;1119;48.288;8.726;2024-01-30T13:17:03;12.40;60.40
2226;DHT22;1119;48.288;8.726;2024-01-30T13:19:30;12.50;60.40
2226;DHT22;1119;48.288;8.726;2024-01-30T13:21:58;12.50;60.60
2226;DHT22;1119;48.288;8.726;2024-01-30T13:24:26;12.50;61.30
2226;DHT22;1119;48.288;8.726;2024-01-30T13:26:54;12.60;61.70
2226;DHT22;1119;48.288;8.726;2024-01-30T13:29:21;12.60;61.00
2226;DHT22;1119;48.288;8.726;2024-01-30T13:31:48;12.60;61.50
2226;DHT22;1119;48.288;8.726;2024-01-30T13:34:16;12.60;61.80
2226;DHT22;1119;48.288;8.726;2024-01-30T13:36:43;12.60;61.70
2226;DHT22;1119;48.288;8.726;2024-01-30T13:39:10;12.60;61.10
2226;DHT22;1119;48.288;8.726;2024-01-30T13:41:40;12.70;61.00
2226;DHT22;1119;48.288;8.726;2024-01-30T13:44:08;12.60;61.20
2226;DHT22;1119;48.288;8.726;2024-01-30T13:46:35;12.60;60.70
2226;DHT22;1119;48.288;8.726;2024-01-30T13:49:04;12.60;61.00
2226;DHT22;1119;48.288;8.726;2024-01-30T13:51:32;12.50;60.40
2226;DHT22;1119;48.288;8.726;2024-01-30T13:53:59;12.50;60.40
2226;DHT22;1119;48.288;8.726;2024-01-30T13:56:27;12.50;60.80
2226;DHT22;1119;48.288;8.726;2024-01-30T13:58:57;12.50;61.40
2226;DHT22;1119;48.288;8.726;2024-01-30T14:01:25;12.50;61.40
2226;DHT22;1119;48.288;8.726;2024-01-30T14:03:53;12.40;60.90
2226;DHT22;1119;48.288;8.726;2024-01-30T14:06:20;12.40;61.80
2226;DHT22;1119;48.288;8.726;2024-01-30T14:08:47;12.40;61.50
2226;DHT22;1119;48.288;8.726;2024-01-30T14:11:15;12.40;61.20
2226;DHT22;1119;48.288;8.726;2024-01-30T14:13:42;12.40;61.00
2226;DHT22;1119;48.288;8.726;2024-01-30T14:16:11;12.40;61.30
2226;DHT22;1119;48.288;8.726;2024-01-30T14:18:38;12.40;61.50
2226;DHT22;1119;48.288;8.726;2024-01-30T14:21:07;12.40;61.50
2226;DHT22;1119;48.288;8.726;2024-01-30T14:23:34;12.40;60.90
2226;DHT22;1119;48.288;8.726;2024-01-30T14:26:01;12.30;61.10
2226;DHT22;1119;48.288;8.726;2024-01-30T14:28:29;12.30;61.60
2226;DHT22;1119;48.288;8.726;2024-01-30T14:30:56;12.30;61.70
2226;DHT22;1119;48.288;8.726;2024-01-30T14:33:24;12.30;61.30
2226;DHT22;1119;48.288;8.726;2024-01-30T14:35:52;12.30;61.40
2226;DHT22;1119;48.288;8.726;2024-01-30T14:38:19;12.30;62.20
2226;DHT22;1119;48.288;8.726;2024-01-30T14:40:46;12.30;62.10
2226;DHT22;1119;48.288;8.726;2024-01-30T14:43:14;12.30;62.50
2226;DHT22;1119;48.288;8.726;2024-01-30T14:45:41;12.20;62.70
2226;DHT22;1119;48.288;8.726;2024-01-30T14:48:09;12.20;63.00
2226;DHT22;1119;48.288;8.726;2024-01-30T14:50:38;12.20;63.00
2226;DHT22;1119;48.288;8.726;2024-01-30T14:53:05;12.20;62.70
2226;DHT22;1119;48.288;8.726;2024-01-30T14:55:33;12.20;63.40
2226;DHT22;1119;48.288;8.726;2024-01-30T14:58:00;12.10;63.10
2226;DHT22;1119;48.288;8.726;2024-01-30T15:00:28;12.10;63.50
2226;DHT22;1119;48.288;8.726;2024-01-30T15:02:55;12.10;63.70
2226;DHT22;1119;48.288;8.726;2024-01-30T15:05:22;12.10;63.80
2226;DHT22;1119;48.288;8.726;2024-01-30T15:07:51;12.10;64.10
2226;DHT22;1119;48.288;8.726;2024-01-30T15:10:18;12.10;64.20
2226;DHT22;1119;48.288;8.726;2024-01-30T15:12:46;12.10;64.50
2226;DHT22;1119;48.288;8.726;2024-01-30T15:15:13;12.00;64.90
2226;DHT22;1119;48.288;8.726;2024-01-30T15:17:40;12.00;65.70
2226;DHT22;1119;48.288;8.726;2024-01-30T15:20:08;12.00;66.50
2226;DHT22;1119;48.288;8.726;2024-01-30T15:22:36;11.90;67.00
2226;DHT22;1119;48.288;8.726;2024-01-30T15:25:06;11.80;67.10
2226;DHT22;1119;48.288;8.726;2024-01-30T15:27:33;11.80;67.30
2226;DHT22;1119;48.288;8.726;2024-01-30T15:30:00;11.80;67.50
2226;DHT22;1119;48.288;8.726;2024-01-30T15:32:29;11.70;67.20
2226;DHT22;1119;48.288;8.726;2024-01-30T15:34:56;11.70;67.20
2226;DHT22;1119;48.288;8.726;2024-01-30T15:37:26;11.60;67.20
2226;DHT22;1119;48.288;8.726;2024-01-30T15:39:54;11.60;67.50
2226;DHT22;1119;48.288;8.726;2024-01-30T15:42:23;11.50;67.60
2226;DHT22;1119;48.288;8.726;2024-01-30T15:44:50;11.40;68.20
2226;DHT22;1119;48.288;8.726;2024-01-30T15:47:17;11.40;68.50
2226;DHT22;1119;48.288;8.726;2024-01-30T15:49:44;11.40;68.60
2226;DHT22;1119;48.288;8.726;2024-01-30T15:52:12;11.40;69.10
2226;DHT22;1119;48.288;8.726;2024-01-30T15:54:40;11.40;69.30
2226;DHT22;1119;48.288;8.726;2024-01-30T15:57:07;11.30;69.80
2226;DHT22;1119;48.288;8.726;2024-01-30T15:59:36;11.30;70.00
2226;DHT22;1119;48.288;8.726;2024-01-30T16:02:04;11.30;70.10
2226;DHT22;1119;48.288;8.726;2024-01-30T16:04:31;11.20;70.20
2226;DHT22;1119;48.288;8.726;2024-01-30T16:06:59;11.20;70.40
2226;DHT22;1119;48.288;8.726;2024-01-30T16:09:26;11.20;70.70
2226;DHT22;1119;48.288;8.726;2024-01-30T16:11:53;11.20;71.70
2226;DHT22;1119;48.288;8.726;2024-01-30T16:14:41;11.20;71.20
2226;DHT22;1119;48.288;8.726;2024-01-30T16:17:27;11.10;71.40